createdAt,value
2016-08-28T00:00:54.932Z,0
2016-08-28T00:01:39.825Z,0
2016-08-28T00:02:39.592Z,0
2016-08-28T00:03:40.274Z,0
2016-08-28T00:04:39.560Z,0
2016-08-28T00:05:39.578Z,0
2016-08-28T00:06:39.569Z,0
2016-08-28T00:07:39.573Z,0
2016-08-28T00:08:39.563Z,0
2016-08-28T00:09:39.592Z,0
2016-08-28T00:10:40.296Z,0
2016-08-28T00:11:39.577Z,0
2016-08-28T00:12:39.558Z,0
2016-08-28T00:13:39.567Z,0
2016-08-28T00:14:39.580Z,0
2016-08-28T00:15:40.265Z,0
2016-08-28T00:16:39.586Z,0
2016-08-28T00:17:39.569Z,0
2016-08-28T00:18:39.579Z,0
2016-08-28T00:19:39.586Z,0
2016-08-28T00:20:39.552Z,0
2016-08-28T00:21:39.582Z,0
2016-08-28T00:22:39.556Z,0
2016-08-28T00:23:39.573Z,0
2016-08-28T00:24:39.558Z,0
2016-08-28T00:25:39.554Z,0
2016-08-28T00:26:39.577Z,0
2016-08-28T00:27:39.587Z,0
2016-08-28T00:28:39.549Z,0
2016-08-28T00:31:41.163Z,0
2016-08-28T00:32:42.559Z,0
2016-08-28T00:33:39.729Z,0
2016-08-28T00:34:40.233Z,0
2016-08-28T00:35:40.067Z,0
2016-08-28T00:36:39.545Z,0
2016-08-28T00:37:39.543Z,0
2016-08-28T00:38:42.467Z,0
2016-08-28T00:39:40.960Z,0
2016-08-28T00:40:42.943Z,0
2016-08-28T00:41:41.272Z,0
2016-08-28T00:42:41.350Z,0
2016-08-28T00:43:40.503Z,0
2016-08-28T00:44:39.580Z,0
2016-08-28T00:45:39.807Z,0
2016-08-28T00:46:39.599Z,0
2016-08-28T00:47:39.578Z,0
2016-08-28T00:48:39.546Z,0
2016-08-28T00:49:39.548Z,0
2016-08-28T00:50:39.533Z,0
2016-08-28T00:51:39.540Z,0
2016-08-28T00:52:39.537Z,0
2016-08-28T00:53:39.557Z,0
2016-08-28T00:54:39.541Z,0
2016-08-28T00:55:39.540Z,0
2016-08-28T00:56:39.538Z,0
2016-08-28T00:57:39.533Z,0
2016-08-28T00:58:39.553Z,0
2016-08-28T00:59:39.524Z,0
2016-08-28T01:00:39.521Z,0
2016-08-28T01:01:39.525Z,0
2016-08-28T01:02:39.528Z,0
2016-08-28T01:03:39.521Z,0
2016-08-28T01:04:39.555Z,0
2016-08-28T01:05:39.525Z,0
2016-08-28T01:06:39.685Z,0
2016-08-28T01:07:40.417Z,0
2016-08-28T01:08:54.581Z,0
2016-08-28T01:09:40.022Z,0
2016-08-28T01:10:39.778Z,0
2016-08-28T01:11:40.727Z,0
2016-08-28T01:12:39.542Z,0
2016-08-28T01:13:39.511Z,0
2016-08-28T01:14:39.630Z,0
2016-08-28T01:15:54.695Z,0
2016-08-28T01:16:39.791Z,0
2016-08-28T01:19:09.339Z,0
2016-08-28T01:19:39.511Z,0
2016-08-28T01:20:40.501Z,0
2016-08-28T01:21:39.517Z,0
2016-08-28T01:22:39.515Z,0
2016-08-28T01:23:39.502Z,0
2016-08-28T01:24:39.504Z,0
2016-08-28T01:25:39.501Z,0
2016-08-28T01:26:39.487Z,0
2016-08-28T01:27:39.502Z,0
2016-08-28T01:28:40.222Z,0
2016-08-28T01:29:39.506Z,0
2016-08-28T01:30:39.512Z,0
2016-08-28T01:31:39.498Z,0
2016-08-28T01:32:40.196Z,0
2016-08-28T01:33:39.487Z,0
2016-08-28T01:34:39.519Z,0
2016-08-28T01:35:39.486Z,0
2016-08-28T01:36:39.483Z,0
2016-08-28T01:37:39.496Z,0
2016-08-28T01:38:39.491Z,0
2016-08-28T01:39:39.489Z,0
2016-08-28T01:40:39.485Z,0
2016-08-28T01:41:39.485Z,0
2016-08-28T01:42:39.490Z,0
2016-08-28T01:43:39.486Z,0
2016-08-28T01:44:39.493Z,0
2016-08-28T01:45:39.473Z,0
2016-08-28T01:46:39.495Z,0
2016-08-28T01:48:41.837Z,0
2016-08-28T01:49:40.353Z,0
2016-08-28T01:50:42.052Z,0
2016-08-28T01:51:39.482Z,0
2016-08-28T01:52:39.462Z,0
2016-08-28T01:53:39.461Z,0
2016-08-28T01:54:39.465Z,0
2016-08-28T01:55:39.459Z,0
2016-08-28T01:56:42.740Z,0
2016-08-28T01:57:41.561Z,0
2016-08-28T01:58:41.724Z,0
2016-08-28T01:59:40.388Z,0
2016-08-28T02:00:40.805Z,0
2016-08-28T02:01:40.273Z,0
2016-08-28T02:02:39.465Z,0
2016-08-28T02:03:39.464Z,0
2016-08-28T02:04:39.442Z,0
2016-08-28T02:05:39.466Z,0
2016-08-28T02:06:39.456Z,0
2016-08-28T02:07:39.468Z,0
2016-08-28T02:08:39.433Z,0
2016-08-28T02:09:39.450Z,0
2016-08-28T02:10:39.428Z,0
2016-08-28T02:11:39.438Z,0
2016-08-28T02:12:39.428Z,0
2016-08-28T02:13:39.434Z,0
2016-08-28T02:14:39.427Z,0
2016-08-28T02:15:40.106Z,0
2016-08-28T02:16:39.426Z,0
2016-08-28T02:17:39.431Z,0
2016-08-28T02:18:40.121Z,0
2016-08-28T02:19:39.442Z,0
2016-08-28T02:20:39.432Z,0
2016-08-28T02:21:39.436Z,0
2016-08-28T02:22:39.422Z,0
2016-08-28T02:23:39.410Z,0
2016-08-28T02:24:41.541Z,0
2016-08-28T02:25:40.113Z,0
2016-08-28T02:26:40.055Z,0
2016-08-28T02:27:39.805Z,0
2016-08-28T02:28:40.381Z,0
2016-08-28T02:29:39.450Z,0
2016-08-28T02:30:40.261Z,0
2016-08-28T02:31:39.402Z,0
2016-08-28T02:32:39.394Z,0
2016-08-28T02:33:40.740Z,0
2016-08-28T02:34:55.216Z,0
2016-08-28T02:35:39.753Z,0
2016-08-28T02:36:39.476Z,0
2016-08-28T02:37:40.582Z,0
2016-08-28T02:38:39.494Z,0
2016-08-28T02:39:40.481Z,0
2016-08-28T02:40:39.385Z,0
2016-08-28T02:41:39.375Z,0
2016-08-28T02:42:39.421Z,0
2016-08-28T02:43:39.391Z,0
2016-08-28T02:44:39.399Z,0
2016-08-28T02:45:39.374Z,0
2016-08-28T02:46:39.373Z,0
2016-08-28T02:47:39.384Z,0
2016-08-28T02:48:39.363Z,0
2016-08-28T02:49:39.354Z,0
2016-08-28T02:50:39.369Z,0
2016-08-28T02:51:39.375Z,0
2016-08-28T02:52:39.352Z,0
2016-08-28T02:53:39.372Z,0
2016-08-28T02:54:39.353Z,0
2016-08-28T02:55:39.363Z,0
2016-08-28T02:56:39.354Z,0
2016-08-28T02:57:39.342Z,0
2016-08-28T02:58:39.369Z,0
2016-08-28T02:59:39.338Z,0
2016-08-28T03:00:39.364Z,0
2016-08-28T03:01:39.341Z,0
2016-08-28T03:02:39.349Z,0
2016-08-28T03:03:39.357Z,0
2016-08-28T03:04:39.355Z,0
2016-08-28T03:05:41.493Z,0
2016-08-28T03:06:42.608Z,0
2016-08-28T03:07:42.776Z,0
2016-08-28T03:08:41.384Z,0
2016-08-28T03:09:39.425Z,0
2016-08-28T03:10:39.312Z,0
2016-08-28T03:11:39.312Z,0
2016-08-28T03:12:39.323Z,0
2016-08-28T03:13:39.312Z,0
2016-08-28T03:14:40.845Z,0
2016-08-28T03:15:44.059Z,0
2016-08-28T03:16:40.902Z,0
2016-08-28T03:17:39.703Z,0
2016-08-28T03:18:40.390Z,0
2016-08-28T03:19:40.077Z,0
2016-08-28T03:20:39.410Z,0
2016-08-28T03:21:39.288Z,0
2016-08-28T03:22:39.322Z,0
2016-08-28T03:23:39.310Z,0
2016-08-28T03:24:39.300Z,0
2016-08-28T03:25:39.291Z,0
2016-08-28T03:26:39.310Z,0
2016-08-28T03:27:39.288Z,0
2016-08-28T03:28:39.286Z,0
2016-08-28T03:29:39.291Z,0
2016-08-28T03:30:39.274Z,0
2016-08-28T03:31:39.279Z,0
2016-08-28T03:32:39.287Z,0
2016-08-28T03:33:39.283Z,0
2016-08-28T03:34:39.302Z,0
2016-08-28T03:35:39.260Z,0
2016-08-28T03:36:39.273Z,0
2016-08-28T03:37:39.259Z,0
2016-08-28T03:38:39.265Z,0
2016-08-28T03:39:39.266Z,0
2016-08-28T03:40:39.283Z,0
2016-08-28T03:41:39.260Z,0
2016-08-28T03:42:39.262Z,0
2016-08-28T03:43:39.711Z,0
2016-08-28T03:44:40.340Z,0
2016-08-28T03:46:39.799Z,0
2016-08-28T03:47:40.966Z,0
2016-08-28T03:48:39.262Z,0
2016-08-28T03:49:39.618Z,0
2016-08-28T03:50:39.271Z,0
2016-08-28T03:51:39.226Z,0
2016-08-28T03:52:41.035Z,0
2016-08-28T03:53:40.597Z,0
2016-08-28T03:54:54.423Z,0
2016-08-28T03:55:39.907Z,0
2016-08-28T03:57:39.259Z,0
2016-08-28T03:58:39.630Z,0
2016-08-28T03:59:39.382Z,5
2016-08-28T04:00:39.213Z,5
2016-08-28T04:01:39.224Z,5
2016-08-28T04:02:39.213Z,5
2016-08-28T04:03:39.225Z,5
2016-08-28T04:04:39.206Z,5
2016-08-28T04:05:39.207Z,5
2016-08-28T04:06:39.204Z,5
2016-08-28T04:07:39.240Z,10
2016-08-28T04:08:39.201Z,10
2016-08-28T04:09:39.305Z,10
2016-08-28T04:10:39.190Z,10
2016-08-28T04:11:39.204Z,10
2016-08-28T04:12:39.195Z,15
2016-08-28T04:13:39.190Z,15
2016-08-28T04:14:39.184Z,15
2016-08-28T04:15:39.184Z,15
2016-08-28T04:16:39.177Z,20
2016-08-28T04:17:39.195Z,20
2016-08-28T04:18:39.160Z,20
2016-08-28T04:19:39.172Z,25
2016-08-28T04:20:39.167Z,25
2016-08-28T04:21:39.178Z,25
2016-08-28T04:22:39.176Z,30
2016-08-28T04:24:42.885Z,30
2016-08-28T04:25:40.449Z,35
2016-08-28T04:26:41.443Z,40
2016-08-28T04:27:40.300Z,45
2016-08-28T04:28:40.242Z,45
2016-08-28T04:29:39.859Z,55
2016-08-28T04:30:39.175Z,50
2016-08-28T04:31:39.200Z,55
2016-08-28T04:32:42.612Z,60
2016-08-28T04:33:42.222Z,65
2016-08-28T04:34:43.530Z,70
2016-08-28T04:35:39.542Z,75
2016-08-28T04:36:40.791Z,70
2016-08-28T04:37:39.156Z,75
2016-08-28T04:38:39.135Z,80
2016-08-28T04:39:39.131Z,85
2016-08-28T04:40:39.135Z,90
2016-08-28T04:41:39.129Z,90
2016-08-28T04:42:39.133Z,95
2016-08-28T04:43:39.107Z,100
2016-08-28T04:44:39.134Z,105
2016-08-28T04:45:39.109Z,110
2016-08-28T04:46:39.140Z,110
2016-08-28T04:47:39.130Z,120
2016-08-28T04:48:39.128Z,120
2016-08-28T04:49:39.109Z,125
2016-08-28T04:50:39.105Z,130
2016-08-28T04:51:39.139Z,135
2016-08-28T04:52:39.131Z,140
2016-08-28T04:53:39.148Z,145
2016-08-28T04:54:39.126Z,150
2016-08-28T04:55:39.117Z,160
2016-08-28T04:56:39.113Z,160
2016-08-28T04:57:39.130Z,165
2016-08-28T04:58:39.106Z,170
2016-08-28T04:59:39.135Z,175
2016-08-28T05:00:39.129Z,185
2016-08-28T05:01:40.236Z,185
2016-08-28T05:02:40.381Z,190
2016-08-28T05:03:39.645Z,195
2016-08-28T05:04:39.282Z,205
2016-08-28T05:05:39.295Z,210
2016-08-28T05:06:39.138Z,210
2016-08-28T05:07:39.158Z,220
2016-08-28T05:08:39.160Z,225
2016-08-28T05:09:39.239Z,230
2016-08-28T05:10:39.593Z,235
2016-08-28T05:11:39.506Z,240
2016-08-28T05:12:54.869Z,250
2016-08-28T05:13:54.480Z,255
2016-08-28T05:14:39.161Z,260
2016-08-28T05:15:39.149Z,265
2016-08-28T05:16:39.188Z,275
2016-08-28T05:17:39.165Z,285
2016-08-28T05:18:39.173Z,290
2016-08-28T05:19:39.181Z,295
2016-08-28T05:20:39.176Z,305
2016-08-28T05:21:39.200Z,310
2016-08-28T05:22:39.220Z,315
2016-08-28T05:23:39.202Z,320
2016-08-28T05:24:39.240Z,325
2016-08-28T05:25:39.213Z,330
2016-08-28T05:26:39.248Z,335
2016-08-28T05:27:39.232Z,350
2016-08-28T05:28:39.245Z,360
2016-08-28T05:29:39.272Z,375
2016-08-28T05:30:39.247Z,380
2016-08-28T05:31:39.252Z,390
2016-08-28T05:32:39.282Z,390
2016-08-28T05:33:39.275Z,395
2016-08-28T05:34:39.275Z,395
2016-08-28T05:35:39.294Z,405
2016-08-28T05:36:39.297Z,415
2016-08-28T05:37:39.314Z,425
2016-08-28T05:38:39.335Z,435
2016-08-28T05:39:39.319Z,445
2016-08-28T05:40:39.338Z,450
2016-08-28T05:41:41.493Z,465
2016-08-28T05:42:41.885Z,470
2016-08-28T05:43:43.255Z,475
2016-08-28T05:44:42.793Z,475
2016-08-28T05:45:41.166Z,475
2016-08-28T05:46:39.448Z,485
2016-08-28T05:47:39.452Z,495
2016-08-28T05:48:39.395Z,505
2016-08-28T05:49:39.398Z,510
2016-08-28T05:50:41.500Z,520
2016-08-28T05:51:43.389Z,530
2016-08-28T05:52:41.168Z,540
2016-08-28T05:53:40.992Z,550
2016-08-28T05:54:39.672Z,555
2016-08-28T05:55:40.807Z,555
2016-08-28T05:56:39.488Z,560
2016-08-28T05:57:39.491Z,570
2016-08-28T05:58:39.495Z,580
2016-08-28T05:59:39.520Z,600
2016-08-28T06:00:39.514Z,605
2016-08-28T06:01:39.519Z,620
2016-08-28T06:02:39.554Z,630
2016-08-28T06:03:39.557Z,630
2016-08-28T06:04:39.577Z,635
2016-08-28T06:05:39.567Z,640
2016-08-28T06:06:39.603Z,645
2016-08-28T06:07:39.586Z,660
2016-08-28T06:08:39.607Z,680
2016-08-28T06:09:39.619Z,690
2016-08-28T06:10:39.641Z,705
2016-08-28T06:11:40.347Z,715
2016-08-28T06:12:40.351Z,725
2016-08-28T06:13:39.661Z,735
2016-08-28T06:14:39.674Z,740
2016-08-28T06:15:39.692Z,745
2016-08-28T06:16:39.703Z,755
2016-08-28T06:17:39.726Z,765
2016-08-28T06:18:39.710Z,765
2016-08-28T06:19:41.895Z,765
2016-08-28T06:20:40.487Z,770
2016-08-28T06:21:40.217Z,760
2016-08-28T06:22:40.255Z,760
2016-08-28T06:23:40.233Z,765
2016-08-28T06:24:39.787Z,785
2016-08-28T06:25:41.317Z,800
2016-08-28T06:26:39.812Z,830
2016-08-28T06:27:39.828Z,855
2016-08-28T06:28:41.979Z,855
2016-08-28T06:29:40.957Z,840
2016-08-28T06:30:41.251Z,820
2016-08-28T06:35:50.423Z,825
2016-08-28T06:38:39.944Z,820
2016-08-28T06:39:39.955Z,820
2016-08-28T06:40:39.961Z,835
2016-08-28T06:41:39.997Z,825
2016-08-28T06:42:39.988Z,835
2016-08-28T06:43:40.010Z,855
2016-08-28T06:44:40.041Z,865
2016-08-28T06:45:40.038Z,880
2016-08-28T06:46:40.029Z,890
2016-08-28T06:47:40.041Z,915
2016-08-28T06:48:40.064Z,925
2016-08-28T06:49:40.083Z,930
2016-08-28T06:50:40.105Z,940
2016-08-28T06:51:40.108Z,945
2016-08-28T06:52:40.134Z,955
2016-08-28T06:53:40.132Z,965
2016-08-28T06:54:40.824Z,965
2016-08-28T06:55:40.175Z,965
2016-08-28T06:56:40.168Z,970
2016-08-28T06:57:40.170Z,980
2016-08-28T06:58:40.207Z,985
2016-08-28T06:59:43.307Z,985
2016-08-28T07:01:42.601Z,1000
2016-08-28T07:02:40.670Z,1020
2016-08-28T07:03:42.525Z,1030
2016-08-28T07:04:41.087Z,1045
2016-08-28T07:05:41.405Z,1055
2016-08-28T07:06:40.316Z,1065
2016-08-28T07:07:40.297Z,1065
2016-08-28T07:09:42.395Z,1075
2016-08-28T07:10:44.402Z,1075
2016-08-28T07:11:41.523Z,1075
2016-08-28T07:12:41.626Z,1075
2016-08-28T07:13:40.453Z,1090
2016-08-28T07:14:40.911Z,1105
2016-08-28T07:15:40.627Z,1120
2016-08-28T07:16:40.414Z,1125
2016-08-28T07:17:40.435Z,1135
2016-08-28T07:18:40.449Z,1145
2016-08-28T07:19:40.493Z,1160
2016-08-28T07:20:40.461Z,1165
2016-08-28T07:21:40.476Z,1170
2016-08-28T07:22:40.506Z,1175
2016-08-28T07:23:40.527Z,1180
2016-08-28T07:24:40.531Z,1200
2016-08-28T07:25:40.559Z,1210
2016-08-28T07:26:40.549Z,1225
2016-08-28T07:27:40.590Z,1220
2016-08-28T07:28:40.573Z,1230
2016-08-28T07:29:40.617Z,1250
2016-08-28T07:30:40.598Z,1265
2016-08-28T07:31:40.638Z,1270
2016-08-28T07:32:40.630Z,1270
2016-08-28T07:33:40.654Z,1290
2016-08-28T07:34:40.694Z,1295
2016-08-28T07:35:40.685Z,1300
2016-08-28T07:36:40.706Z,1285
2016-08-28T07:37:56.240Z,1280
2016-08-28T07:38:41.264Z,1285
2016-08-28T07:39:41.115Z,1305
2016-08-28T07:40:41.049Z,1310
2016-08-28T07:41:41.324Z,1310
2016-08-28T07:42:40.966Z,1330
2016-08-28T07:43:40.788Z,1345
2016-08-28T07:44:40.810Z,1365
2016-08-28T07:45:40.810Z,1380
2016-08-28T07:46:41.317Z,1395
2016-08-28T07:47:42.701Z,1410
2016-08-28T07:48:55.917Z,1425
2016-08-28T07:49:56.529Z,1415
2016-08-28T07:50:41.095Z,1425
2016-08-28T07:51:40.962Z,1440
2016-08-28T07:52:40.899Z,1440
2016-08-28T07:53:40.948Z,1440
2016-08-28T07:54:40.970Z,1440
2016-08-28T07:55:40.969Z,1435
2016-08-28T07:56:41.664Z,1440
2016-08-28T07:57:41.002Z,1440
2016-08-28T07:58:40.981Z,1460
2016-08-28T07:59:41.010Z,1475
2016-08-28T08:00:41.014Z,1490
2016-08-28T08:01:41.037Z,1490
2016-08-28T08:02:41.070Z,1500
2016-08-28T08:03:41.778Z,1525
2016-08-28T08:04:41.092Z,1540
2016-08-28T08:05:41.078Z,1545
2016-08-28T08:06:41.093Z,1535
2016-08-28T08:07:41.116Z,1525
2016-08-28T08:08:41.138Z,1520
2016-08-28T08:09:41.542Z,1510
2016-08-28T08:10:41.177Z,1530
2016-08-28T08:11:41.166Z,1555
2016-08-28T08:12:41.181Z,1580
2016-08-28T08:13:41.201Z,1595
2016-08-28T08:14:41.202Z,1605
2016-08-28T08:15:41.214Z,1610
2016-08-28T08:16:41.240Z,1615
2016-08-28T08:17:41.252Z,1615
2016-08-28T08:18:41.295Z,1615
2016-08-28T08:19:41.276Z,1640
2016-08-28T08:20:41.330Z,1635
2016-08-28T08:21:41.312Z,1635
2016-08-28T08:22:41.332Z,1630
2016-08-28T08:23:41.323Z,1625
2016-08-28T08:24:41.379Z,1490
2016-08-28T08:25:41.377Z,780
2016-08-28T08:26:41.391Z,235
2016-08-28T08:27:41.380Z,220
2016-08-28T08:28:41.390Z,215
2016-08-28T08:29:41.424Z,215
2016-08-28T08:30:41.421Z,215
2016-08-28T08:31:41.458Z,215
2016-08-28T08:32:41.456Z,215
2016-08-28T08:33:41.463Z,215
2016-08-28T08:34:41.460Z,215
2016-08-28T08:35:41.509Z,215
2016-08-28T08:36:41.495Z,215
2016-08-28T08:37:41.502Z,215
2016-08-28T08:38:41.521Z,215
2016-08-28T08:39:41.509Z,220
2016-08-28T08:40:41.543Z,220
2016-08-28T08:41:41.537Z,220
2016-08-28T08:42:41.580Z,220
2016-08-28T08:43:41.551Z,220
2016-08-28T08:44:41.571Z,220
2016-08-28T08:45:41.607Z,220
2016-08-28T08:46:41.591Z,220
2016-08-28T08:47:41.607Z,220
2016-08-28T08:48:41.614Z,225
2016-08-28T08:49:41.610Z,225
2016-08-28T08:50:41.606Z,225
2016-08-28T08:51:41.652Z,225
2016-08-28T08:52:41.622Z,225
2016-08-28T08:53:41.654Z,225
2016-08-28T08:54:41.660Z,230
2016-08-28T08:55:42.867Z,225
2016-08-28T08:56:42.263Z,225
2016-08-28T08:57:41.989Z,225
2016-08-28T08:58:41.987Z,225
2016-08-28T08:59:42.446Z,225
2016-08-28T09:00:42.621Z,225
2016-08-28T09:01:41.713Z,225
2016-08-28T09:02:41.711Z,225
2016-08-28T09:03:41.741Z,225
2016-08-28T09:04:42.487Z,230
2016-08-28T09:05:42.133Z,230
2016-08-28T09:06:42.035Z,225
2016-08-28T09:07:42.441Z,230
2016-08-28T09:08:41.761Z,230
2016-08-28T09:09:43.378Z,225
2016-08-28T09:10:42.355Z,225
2016-08-28T09:11:41.801Z,225
2016-08-28T09:12:41.771Z,220
2016-08-28T09:13:41.798Z,220
2016-08-28T09:14:41.790Z,220
2016-08-28T09:15:42.514Z,220
2016-08-28T09:16:41.814Z,220
2016-08-28T09:17:41.824Z,220
2016-08-28T09:18:41.819Z,220
2016-08-28T09:19:41.812Z,220
2016-08-28T09:20:41.834Z,220
2016-08-28T09:21:41.842Z,220
2016-08-28T09:22:41.866Z,220
2016-08-28T09:23:41.853Z,220
2016-08-28T09:24:41.852Z,220
2016-08-28T09:25:41.858Z,220
2016-08-28T09:26:41.864Z,225
2016-08-28T09:27:41.866Z,225
2016-08-28T09:28:41.891Z,225
2016-08-28T09:29:41.884Z,230
2016-08-28T09:30:41.891Z,230
2016-08-28T09:31:41.911Z,230
2016-08-28T09:32:41.903Z,235
2016-08-28T09:33:41.902Z,235
2016-08-28T09:34:41.924Z,240
2016-08-28T09:35:41.920Z,240
2016-08-28T09:36:41.938Z,240
2016-08-28T09:37:41.934Z,245
2016-08-28T09:38:41.942Z,245
2016-08-28T09:39:41.952Z,250
2016-08-28T09:40:41.961Z,245
2016-08-28T09:41:41.972Z,240
2016-08-28T09:42:42.007Z,250
2016-08-28T09:43:41.975Z,250
2016-08-28T09:44:42.005Z,255
2016-08-28T09:45:41.993Z,255
2016-08-28T09:46:42.017Z,255
2016-08-28T09:47:42.000Z,250
2016-08-28T09:48:42.022Z,250
2016-08-28T09:49:42.016Z,255
2016-08-28T09:50:42.041Z,255
2016-08-28T09:51:42.045Z,255
2016-08-28T09:52:42.029Z,260
2016-08-28T09:53:42.046Z,265
2016-08-28T09:54:42.055Z,265
2016-08-28T09:55:42.063Z,265
2016-08-28T09:56:42.093Z,265
2016-08-28T09:57:42.064Z,265
2016-08-28T09:58:42.095Z,260
2016-08-28T09:59:42.085Z,255
2016-08-28T10:00:42.122Z,250
2016-08-28T10:01:42.124Z,250
2016-08-28T10:02:42.105Z,245
2016-08-28T10:03:42.107Z,245
2016-08-28T10:04:42.118Z,240
2016-08-28T10:05:42.143Z,240
2016-08-28T10:06:42.157Z,250
2016-08-28T10:07:42.155Z,250
2016-08-28T10:08:42.137Z,255
2016-08-28T10:09:42.162Z,255
2016-08-28T10:10:42.258Z,255
2016-08-28T10:11:42.163Z,260
2016-08-28T10:12:42.185Z,265
2016-08-28T10:13:43.214Z,270
2016-08-28T10:14:42.943Z,275
2016-08-28T10:15:58.685Z,285
2016-08-28T10:16:43.400Z,290
2016-08-28T10:17:43.714Z,295
2016-08-28T10:19:45.312Z,305
2016-08-28T10:20:43.946Z,315
2016-08-28T10:21:43.271Z,315
2016-08-28T10:23:43.176Z,315
2016-08-28T10:24:42.784Z,320
2016-08-28T10:25:43.624Z,325
2016-08-28T10:27:45.593Z,325
2016-08-28T10:28:43.922Z,330
2016-08-28T10:29:44.946Z,330
2016-08-28T10:30:42.455Z,335
2016-08-28T10:31:42.299Z,335
2016-08-28T10:32:42.695Z,335
2016-08-28T10:33:42.957Z,340
2016-08-28T10:34:42.502Z,335
2016-08-28T10:35:42.327Z,330
2016-08-28T10:36:42.351Z,330
2016-08-28T10:37:42.370Z,330
2016-08-28T10:38:42.391Z,330
2016-08-28T10:39:42.363Z,330
2016-08-28T10:40:42.372Z,325
2016-08-28T10:41:42.382Z,320
2016-08-28T10:42:42.416Z,320
2016-08-28T10:43:42.397Z,315
2016-08-28T10:44:42.410Z,315
2016-08-28T10:45:42.406Z,310
2016-08-28T10:46:42.426Z,310
2016-08-28T10:47:42.436Z,305
2016-08-28T10:48:42.484Z,305
2016-08-28T10:49:42.451Z,310
2016-08-28T10:50:42.467Z,300
2016-08-28T10:51:42.464Z,300
2016-08-28T10:52:42.480Z,295
2016-08-28T10:53:42.521Z,290
2016-08-28T10:54:42.478Z,290
2016-08-28T10:55:42.498Z,295
2016-08-28T10:56:42.521Z,295
2016-08-28T10:57:42.525Z,295
2016-08-28T10:58:42.522Z,290
2016-08-28T10:59:42.530Z,295
2016-08-28T11:00:42.554Z,295
2016-08-28T11:01:42.550Z,300
2016-08-28T11:02:42.584Z,300
2016-08-28T11:03:42.569Z,305
2016-08-28T11:04:42.577Z,310
2016-08-28T11:05:42.570Z,310
2016-08-28T11:06:42.598Z,315
2016-08-28T11:07:42.599Z,315
2016-08-28T11:08:42.629Z,315
2016-08-28T11:09:42.616Z,320
2016-08-28T11:10:42.722Z,320
2016-08-28T11:11:42.634Z,315
2016-08-28T11:12:42.641Z,315
2016-08-28T11:13:42.662Z,315
2016-08-28T11:14:42.667Z,310
2016-08-28T11:15:42.654Z,310
2016-08-28T11:16:42.696Z,310
2016-08-28T11:17:42.694Z,305
2016-08-28T11:18:42.715Z,305
2016-08-28T11:19:42.709Z,305
2016-08-28T11:20:42.725Z,305
2016-08-28T11:21:42.710Z,300
2016-08-28T11:22:42.745Z,300
2016-08-28T11:23:42.733Z,300
2016-08-28T11:24:42.793Z,300
2016-08-28T11:25:42.759Z,295
2016-08-28T11:26:42.781Z,295
2016-08-28T11:27:42.761Z,290
2016-08-28T11:28:42.769Z,290
2016-08-28T11:29:42.785Z,295
2016-08-28T11:30:42.820Z,295
2016-08-28T11:32:43.459Z,305
2016-08-28T11:33:43.723Z,310
2016-08-28T11:34:43.220Z,315
2016-08-28T11:35:44.421Z,320
2016-08-28T11:37:44.168Z,325
2016-08-28T11:38:45.258Z,330
2016-08-28T11:39:44.797Z,335
2016-08-28T11:40:45.020Z,335
2016-08-28T11:41:42.995Z,335
2016-08-28T11:42:44.532Z,340
2016-08-28T11:43:43.607Z,340
2016-08-28T11:44:44.006Z,345
2016-08-28T11:45:45.238Z,345
2016-08-28T11:46:44.626Z,345
2016-08-28T11:47:43.887Z,345
2016-08-28T11:48:43.748Z,345
2016-08-28T11:49:43.409Z,350
2016-08-28T11:50:42.961Z,360
2016-08-28T11:51:42.965Z,360
2016-08-28T11:52:43.689Z,365
2016-08-28T11:53:43.001Z,375
2016-08-28T11:54:43.002Z,375
2016-08-28T11:55:43.019Z,375
2016-08-28T11:56:43.007Z,375
2016-08-28T11:57:43.025Z,380
2016-08-28T11:58:43.057Z,380
2016-08-28T11:59:43.051Z,380
2016-08-28T12:00:43.077Z,380
2016-08-28T12:01:43.062Z,375
2016-08-28T12:02:43.078Z,375
2016-08-28T12:03:43.091Z,375
2016-08-28T12:04:43.106Z,375
2016-08-28T12:05:43.116Z,375
2016-08-28T12:06:43.110Z,380
2016-08-28T12:07:43.820Z,385
2016-08-28T12:08:43.134Z,385
2016-08-28T12:09:43.148Z,390
2016-08-28T12:10:43.166Z,390
2016-08-28T12:11:43.172Z,385
2016-08-28T12:12:43.160Z,385
2016-08-28T12:13:43.170Z,390
2016-08-28T12:14:43.200Z,385
2016-08-28T12:15:43.194Z,380
2016-08-28T12:16:43.229Z,375
2016-08-28T12:17:43.223Z,375
2016-08-28T12:18:43.234Z,375
2016-08-28T12:19:43.228Z,380
2016-08-28T12:20:43.247Z,390
2016-08-28T12:21:43.259Z,400
2016-08-28T12:22:43.273Z,405
2016-08-28T12:23:43.263Z,405
2016-08-28T12:24:43.309Z,400
2016-08-28T12:25:43.295Z,395
2016-08-28T12:26:43.296Z,390
2016-08-28T12:27:43.302Z,390
2016-08-28T12:28:43.323Z,390
2016-08-28T12:29:43.327Z,390
2016-08-28T12:30:43.337Z,395
2016-08-28T12:31:43.352Z,395
2016-08-28T12:32:43.381Z,395
2016-08-28T12:33:43.373Z,390
2016-08-28T12:34:43.391Z,385
2016-08-28T12:35:43.381Z,380
2016-08-28T12:36:43.400Z,380
2016-08-28T12:37:43.408Z,370
2016-08-28T12:38:43.458Z,365
2016-08-28T12:39:43.434Z,355
2016-08-28T12:40:43.435Z,350
2016-08-28T12:41:43.437Z,345
2016-08-28T12:42:43.484Z,345
2016-08-28T12:43:43.470Z,345
2016-08-28T12:44:43.471Z,350
2016-08-28T12:45:43.480Z,345
2016-08-28T12:46:43.487Z,345
2016-08-28T12:47:43.498Z,345
2016-08-28T12:48:43.542Z,340
2016-08-28T12:49:44.522Z,335
2016-08-28T12:50:44.678Z,330
2016-08-28T12:51:44.035Z,325
2016-08-28T12:54:45.352Z,310
2016-08-28T12:55:46.387Z,305
2016-08-28T12:56:46.127Z,300
2016-08-28T12:57:43.873Z,295
2016-08-28T12:58:46.079Z,295
2016-08-28T12:59:45.185Z,295
2016-08-28T13:00:44.147Z,295
2016-08-28T13:01:43.741Z,295
2016-08-28T13:02:44.495Z,300
2016-08-28T13:03:47.052Z,300
2016-08-28T13:04:45.299Z,305
2016-08-28T13:05:44.922Z,305
2016-08-28T13:06:45.141Z,310
2016-08-28T13:07:45.074Z,310
2016-08-28T13:08:44.423Z,305
2016-08-28T13:09:43.719Z,305
2016-08-28T13:10:43.787Z,300
2016-08-28T13:11:43.768Z,305
2016-08-28T13:12:43.814Z,305
2016-08-28T13:13:43.775Z,300
2016-08-28T13:14:43.771Z,305
2016-08-28T13:15:43.772Z,305
2016-08-28T13:16:43.793Z,310
2016-08-28T13:17:43.810Z,315
2016-08-28T13:18:43.831Z,325
2016-08-28T13:19:43.830Z,325
2016-08-28T13:20:43.839Z,330
2016-08-28T13:21:43.841Z,330
2016-08-28T13:22:43.862Z,335
2016-08-28T13:23:43.857Z,335
2016-08-28T13:24:43.863Z,335
2016-08-28T13:25:43.884Z,335
2016-08-28T13:26:43.898Z,335
2016-08-28T13:27:43.950Z,335
2016-08-28T13:28:43.918Z,330
2016-08-28T13:29:43.933Z,325
2016-08-28T13:30:43.914Z,320
2016-08-28T13:31:43.956Z,310
2016-08-28T13:32:43.937Z,300
2016-08-28T13:33:43.961Z,290
2016-08-28T13:34:43.995Z,280
2016-08-28T13:35:43.970Z,275
2016-08-28T13:36:43.989Z,260
2016-08-28T13:37:44.000Z,250
2016-08-28T13:38:44.026Z,245
2016-08-28T13:39:44.034Z,230
2016-08-28T13:40:44.047Z,225
2016-08-28T13:41:44.043Z,215
2016-08-28T13:42:44.043Z,215
2016-08-28T13:43:44.045Z,210
2016-08-28T13:44:44.064Z,205
2016-08-28T13:45:44.077Z,200
2016-08-28T13:46:44.103Z,195
2016-08-28T13:47:44.096Z,190
2016-08-28T13:48:44.128Z,185
2016-08-28T13:49:44.139Z,190
2016-08-28T13:50:44.148Z,190
2016-08-28T13:51:44.137Z,190
2016-08-28T13:52:44.172Z,190
2016-08-28T13:53:44.844Z,190
2016-08-28T13:54:44.163Z,190
2016-08-28T13:55:44.295Z,190
2016-08-28T13:56:44.187Z,190
2016-08-28T13:57:44.197Z,190
2016-08-28T13:58:44.191Z,190
2016-08-28T13:59:44.221Z,185
2016-08-28T14:00:44.223Z,185
2016-08-28T14:01:44.233Z,180
2016-08-28T14:02:44.252Z,180
2016-08-28T14:03:44.245Z,180
2016-08-28T14:04:44.269Z,175
2016-08-28T14:05:44.279Z,175
2016-08-28T14:06:44.265Z,175
2016-08-28T14:07:46.200Z,175
2016-08-28T14:08:44.501Z,175
2016-08-28T14:11:44.326Z,170
2016-08-28T14:12:47.457Z,175
2016-08-28T14:13:45.858Z,170
2016-08-28T14:14:47.346Z,170
2016-08-28T14:15:45.496Z,170
2016-08-28T14:16:45.766Z,170
2016-08-28T14:17:45.187Z,170
2016-08-28T14:18:45.368Z,170
2016-08-28T14:20:44.396Z,165
2016-08-28T14:21:47.929Z,160
2016-08-28T14:22:46.409Z,160
2016-08-28T14:23:46.356Z,165
2016-08-28T14:24:44.738Z,170
2016-08-28T14:25:44.958Z,170
2016-08-28T14:26:44.467Z,175